createdAt,value
2019-04-10T00:00:10.556Z,35.77
2019-04-10T00:02:39.768Z,34.60
2019-04-10T00:05:08.401Z,33.90
2019-04-10T00:07:37.504Z,32.60
2019-04-10T00:10:07.655Z,32.83
2019-04-10T00:12:36.219Z,32.60
2019-04-10T00:15:05.466Z,31.93
2019-04-10T00:17:34.052Z,32.90
2019-04-10T00:20:02.557Z,32.40
2019-04-10T00:22:30.965Z,32.43
2019-04-10T00:25:00.132Z,32.17
2019-04-10T00:27:28.664Z,29.80
2019-04-10T00:29:57.065Z,30.80
2019-04-10T00:32:25.474Z,30.70
2019-04-10T00:34:54.082Z,32.30
2019-04-10T00:37:28.150Z,30.30
2019-04-10T00:39:53.016Z,30.07
2019-04-10T00:42:21.489Z,30.33
2019-04-10T00:44:50.080Z,30.77
2019-04-10T00:47:19.122Z,30.23
2019-04-10T00:49:48.235Z,30.17
2019-04-10T00:52:16.757Z,29.57
2019-04-10T00:54:45.154Z,30.33
2019-04-10T00:57:13.564Z,29.90
2019-04-10T00:59:42.211Z,30.23
2019-04-10T01:02:10.713Z,29.20
2019-04-10T01:04:39.112Z,29.40
2019-04-10T01:07:08.394Z,29.17
2019-04-10T03:37:16.013Z,24.83
2019-04-10T03:39:44.731Z,25.43
2019-04-10T03:42:13.192Z,26.43
2019-04-10T03:44:41.598Z,25.03
2019-04-10T03:47:11.180Z,25.50
2019-04-10T03:49:40.126Z,26.20
2019-04-10T03:52:09.963Z,26.07
2019-04-10T03:54:39.009Z,24.73
2019-04-10T03:57:07.566Z,25.23
2019-04-10T03:59:36.317Z,25.07
2019-04-10T04:02:07.058Z,23.10
2019-04-10T04:04:35.789Z,23.97
2019-04-10T04:07:04.978Z,23.67
2019-04-10T04:09:33.625Z,22.23
2019-04-10T04:12:02.353Z,22.33
2019-04-10T04:14:30.908Z,21.87
2019-04-10T04:16:59.760Z,22.43
2019-04-10T04:19:28.317Z,22.03
2019-04-10T04:21:56.822Z,23.23
2019-04-10T04:24:26.526Z,22.90
2019-04-10T04:26:55.142Z,20.30
2019-04-10T04:29:24.507Z,21.43
2019-04-10T04:31:53.137Z,20.70
2019-04-10T04:34:21.538Z,20.13
2019-04-10T04:36:50.014Z,20.57
2019-04-10T04:39:24.970Z,19.10
2019-04-10T04:41:48.566Z,19.73
2019-04-10T04:44:18.007Z,19.73
2019-04-10T04:46:46.504Z,21.90
2019-04-10T04:49:15.729Z,18.53
2019-04-10T04:51:44.208Z,18.80
2019-04-10T04:54:12.958Z,18.10
2019-04-10T04:56:42.266Z,18.53
2019-04-10T04:59:10.795Z,18.90
2019-04-10T05:01:40.329Z,19.17
2019-04-10T05:04:09.072Z,18.87
2019-04-10T05:06:37.589Z,18.37
2019-04-10T05:09:07.128Z,18.77
2019-04-10T05:11:36.405Z,17.30
2019-04-10T05:14:04.984Z,17.20
2019-04-10T05:16:33.394Z,17.13
2019-04-10T05:19:02.132Z,18.10
2019-04-10T05:21:30.625Z,18.43
2019-04-10T05:23:59.690Z,17.67
2019-04-10T05:26:28.122Z,17.70
2019-04-10T05:28:57.085Z,17.23
2019-04-10T05:31:25.673Z,17.00
2019-04-10T05:33:54.082Z,17.07
2019-04-10T05:36:23.515Z,17.33
2019-04-10T05:38:52.547Z,16.57
2019-04-10T05:41:21.855Z,16.13
2019-04-10T05:43:51.269Z,16.43
2019-04-10T05:46:21.516Z,15.67
2019-04-10T05:48:50.521Z,15.40
2019-04-10T05:51:19.207Z,15.20
2019-04-10T05:53:49.895Z,14.77
2019-04-10T05:56:19.067Z,16.20
2019-04-10T05:58:49.019Z,14.93
2019-04-10T06:01:29.978Z,15.77
2019-04-10T06:03:49.085Z,15.17
2019-04-10T06:06:17.693Z,16.60
2019-04-10T06:08:47.044Z,16.67
2019-04-10T06:11:15.610Z,17.70
2019-04-10T06:13:45.065Z,17.90
2019-04-10T06:16:13.705Z,14.33
2019-04-10T06:18:43.047Z,15.57
2019-04-10T06:21:12.549Z,14.70
2019-04-10T06:23:41.375Z,14.27
2019-04-10T06:26:10.249Z,13.03
2019-04-10T06:28:38.766Z,12.57
2019-04-10T06:31:08.273Z,12.30
2019-04-10T06:33:37.037Z,11.93
2019-04-10T06:36:05.466Z,11.53
2019-04-10T06:38:35.058Z,12.13
2019-04-10T06:41:03.613Z,12.00
2019-04-10T06:43:32.957Z,10.90
2019-04-10T06:46:01.613Z,10.80
2019-04-10T06:48:30.362Z,11.17
2019-04-10T06:50:59.766Z,11.10
2019-04-10T06:53:28.939Z,10.87
2019-04-10T06:55:57.585Z,11.10
2019-04-10T06:58:25.997Z,10.83
2019-04-10T07:00:55.252Z,10.37
2019-04-10T07:03:33.895Z,9.93
2019-04-10T07:06:06.026Z,9.93
2019-04-10T07:08:27.341Z,10.53
2019-04-10T07:11:03.318Z,10.77
2019-04-10T07:13:26.177Z,10.50
2019-04-10T07:15:58.146Z,10.57
2019-04-10T07:18:26.318Z,11.00
2019-04-10T07:20:58.354Z,10.33
2019-04-10T07:23:28.764Z,9.87
2019-04-10T07:25:56.136Z,10.80
2019-04-10T07:28:25.683Z,10.47
2019-04-10T07:30:56.829Z,10.10
2019-04-10T07:33:24.572Z,10.83
2019-04-10T07:35:55.955Z,9.93
2019-04-10T07:38:23.221Z,10.50
2019-04-10T07:40:51.727Z,10.17
2019-04-10T07:43:24.681Z,10.47
2019-04-10T07:45:50.278Z,10.50
2019-04-10T07:48:18.691Z,10.87
2019-04-10T07:50:48.295Z,11.87
2019-04-10T07:53:17.005Z,10.57
2019-04-10T07:55:57.501Z,12.73
2019-04-10T07:58:15.620Z,10.53
2019-04-10T08:00:44.877Z,10.73
2019-04-10T08:03:14.580Z,11.43
2019-04-10T08:05:44.010Z,11.20
2019-04-10T08:08:12.726Z,11.13
2019-04-10T08:10:42.689Z,11.37
2019-04-10T08:13:12.171Z,12.63
2019-04-10T08:15:41.236Z,11.73
2019-04-10T08:18:10.031Z,12.60
2019-04-10T08:20:38.554Z,12.40
2019-04-10T08:23:07.917Z,12.40
2019-04-10T08:25:37.127Z,12.63
2019-04-10T08:28:05.646Z,12.90
2019-04-10T08:30:34.271Z,13.27
2019-04-10T08:33:04.332Z,13.40
2019-04-10T08:35:33.582Z,14.03
2019-04-10T08:38:03.268Z,13.20
2019-04-10T08:40:32.148Z,14.43
2019-04-10T08:43:01.770Z,14.33
2019-04-10T08:45:40.559Z,15.17
2019-04-10T08:48:01.448Z,14.80
2019-04-10T08:50:30.227Z,16.87
2019-04-10T08:52:59.902Z,15.83
2019-04-10T08:55:28.551Z,15.80
2019-04-10T08:57:56.961Z,15.83
2019-04-10T09:00:25.386Z,17.40
2019-04-10T09:02:54.755Z,17.53
2019-04-10T09:05:23.834Z,18.30
2019-04-10T09:07:52.692Z,19.53
2019-04-10T09:10:21.273Z,18.07
2019-04-10T09:12:49.770Z,19.07
2019-04-10T09:15:18.277Z,18.73
2019-04-10T09:17:47.223Z,20.32
2019-04-10T09:20:16.346Z,21.42
2019-04-10T09:23:10.624Z,23.07
2019-04-10T09:25:16.118Z,23.83
2019-04-10T09:27:46.181Z,22.98
2019-04-10T09:30:14.910Z,24.05
2019-04-10T09:32:44.331Z,24.30
2019-04-10T09:35:14.052Z,23.55
2019-04-10T09:37:42.585Z,23.40
2019-04-10T09:40:11.977Z,23.70
2019-04-10T09:42:40.418Z,24.23
2019-04-10T09:45:09.378Z,23.27
2019-04-10T09:47:37.778Z,24.50
2019-04-10T09:50:07.799Z,24.65
2019-04-10T09:52:36.230Z,25.00
2019-04-10T09:55:07.521Z,25.30
2019-04-10T09:57:36.711Z,25.00
2019-04-10T10:00:08.010Z,24.32
2019-04-10T10:02:36.491Z,25.30
2019-04-10T10:05:06.429Z,25.65
2019-04-10T10:07:34.906Z,25.02
2019-04-10T10:10:04.525Z,25.08
2019-04-10T10:12:32.942Z,23.57
2019-04-10T10:15:02.532Z,23.40
2019-04-10T10:17:31.063Z,23.27
2019-04-10T10:19:59.589Z,22.93
2019-04-10T10:22:28.097Z,23.80
2019-04-10T10:24:57.732Z,23.67
2019-04-10T10:27:26.787Z,24.90
2019-04-10T10:29:56.085Z,24.40
2019-04-10T10:32:24.853Z,24.05
2019-04-10T10:34:54.565Z,23.75
2019-04-10T10:37:24.111Z,24.65
2019-04-10T10:39:52.854Z,23.90
2019-04-10T10:42:21.386Z,24.35
2019-04-10T10:44:50.061Z,23.52
2019-04-10T10:47:18.521Z,24.18
2019-04-10T10:49:46.942Z,24.37
2019-04-10T10:52:15.408Z,23.92
2019-04-10T10:54:43.850Z,24.65
2019-04-10T10:57:13.202Z,24.05
2019-04-10T10:59:41.904Z,25.23
2019-04-10T11:02:10.653Z,24.43
2019-04-10T11:04:39.857Z,24.25
2019-04-10T11:07:08.680Z,24.77
2019-04-10T11:09:37.650Z,23.10
2019-04-10T11:12:06.668Z,23.02
2019-04-10T11:14:35.455Z,22.50
2019-04-10T11:17:05.295Z,20.70
2019-04-10T11:19:35.385Z,23.38
2019-04-10T11:22:05.675Z,21.95
2019-04-10T11:24:35.582Z,20.80
2019-04-10T11:27:06.319Z,20.57
2019-04-10T11:29:35.167Z,20.77
2019-04-10T11:32:04.217Z,20.97
2019-04-10T11:34:34.417Z,21.20
2019-04-10T11:37:21.572Z,21.30
2019-04-10T11:39:35.361Z,19.33
2019-04-10T11:42:04.151Z,19.63
2019-04-10T11:44:33.610Z,20.27
2019-04-10T11:47:05.562Z,20.33
2019-04-10T11:49:34.024Z,19.47
2019-04-10T11:52:04.019Z,21.10
2019-04-10T11:54:37.603Z,19.87
2019-04-10T11:57:06.312Z,20.77
2019-04-10T11:59:35.973Z,20.00
2019-04-10T12:02:06.484Z,20.70
2019-04-10T12:07:05.977Z,20.97
2019-04-10T12:12:05.687Z,20.60
2019-04-10T12:14:35.218Z,20.23
2019-04-10T12:17:03.992Z,20.97
2019-04-10T12:19:32.416Z,21.97
2019-04-10T12:22:00.888Z,19.90
2019-04-10T12:24:30.054Z,19.90
2019-04-10T12:26:58.543Z,20.43
2019-04-10T12:29:27.007Z,19.53
2019-04-10T12:31:56.552Z,19.33
2019-04-10T12:34:25.016Z,20.07
2019-04-10T12:36:53.459Z,19.07
2019-04-10T12:39:22.670Z,19.33
2019-04-10T12:41:52.005Z,18.03
2019-04-10T12:44:21.331Z,19.57
2019-04-10T12:46:49.830Z,18.97
2019-04-10T12:49:19.174Z,17.37
2019-04-10T12:51:47.931Z,17.83
2019-04-10T12:54:17.377Z,18.90
2019-04-10T12:56:46.370Z,18.57
2019-04-10T12:59:15.191Z,19.17
2019-04-10T13:01:44.860Z,18.60
2019-04-10T13:04:13.800Z,17.70
2019-04-10T13:06:42.349Z,18.17
2019-04-10T13:09:12.955Z,17.40
2019-04-10T13:11:42.732Z,18.60
2019-04-10T13:14:11.267Z,18.70
2019-04-10T13:16:40.345Z,17.27
2019-04-10T13:19:09.781Z,17.07
2019-04-10T13:21:38.872Z,17.47
2019-04-10T13:24:07.290Z,18.53
2019-04-10T13:26:35.697Z,17.70
2019-04-10T13:29:04.197Z,16.50
2019-04-10T13:31:33.222Z,17.70
2019-04-10T13:34:02.761Z,18.00
2019-04-10T13:36:31.449Z,17.50
2019-04-10T13:39:00.245Z,16.83
2019-04-10T13:41:28.882Z,18.03
2019-04-10T13:43:58.161Z,17.37
2019-04-10T13:46:26.874Z,15.23
2019-04-10T13:48:55.583Z,16.53
2019-04-10T13:51:24.164Z,17.07
2019-04-10T13:53:52.591Z,16.33
2019-04-10T13:56:21.126Z,16.13
2019-04-10T13:58:50.764Z,16.43
2019-04-10T14:01:21.002Z,17.60
2019-04-10T14:03:50.361Z,17.03
2019-04-10T14:06:19.227Z,17.33
2019-04-10T14:09:04.456Z,16.33
2019-04-10T14:11:19.292Z,16.97
2019-04-10T14:13:48.368Z,16.90
2019-04-10T14:16:16.991Z,16.83
2019-04-10T14:18:45.883Z,16.27
2019-04-10T14:21:16.049Z,16.00
2019-04-10T14:23:45.249Z,15.83
2019-04-10T14:26:16.945Z,16.73
2019-04-10T14:28:46.175Z,15.83
2019-04-10T14:31:16.236Z,15.77
2019-04-10T14:33:45.093Z,16.30
2019-04-10T14:36:13.883Z,15.90
2019-04-10T14:38:43.939Z,15.23
2019-04-10T14:41:12.414Z,15.03
2019-04-10T14:43:42.671Z,14.93
2019-04-10T14:46:12.388Z,15.30
2019-04-10T14:48:40.940Z,15.03
2019-04-10T14:51:10.258Z,14.70
2019-04-10T14:53:39.403Z,15.00
2019-04-10T14:56:08.306Z,15.00
2019-04-10T14:58:37.003Z,14.77
2019-04-10T15:01:08.417Z,16.13
2019-04-10T15:03:36.180Z,15.23
2019-04-10T15:06:05.069Z,15.33
2019-04-10T15:08:33.479Z,16.17
2019-04-10T15:11:02.412Z,16.00
2019-04-10T15:13:31.844Z,16.80
2019-04-10T15:16:00.830Z,16.97
2019-04-10T15:18:30.927Z,15.27
2019-04-10T15:21:00.629Z,17.17
2019-04-10T15:23:29.590Z,17.77
2019-04-10T15:25:58.138Z,16.70
2019-04-10T15:28:27.452Z,14.77
2019-04-10T15:30:57.131Z,14.47
2019-04-10T15:33:26.699Z,16.43
2019-04-10T15:35:55.521Z,13.90
2019-04-10T15:38:24.133Z,13.80
2019-04-10T15:40:52.897Z,14.10
2019-04-10T15:43:23.574Z,13.73
2019-04-10T15:45:52.532Z,13.67
2019-04-10T15:48:21.146Z,12.77
2019-04-10T15:50:49.852Z,12.40
2019-04-10T15:53:18.562Z,12.17
2019-04-10T15:55:47.608Z,12.47
2019-04-10T15:58:17.208Z,12.77
2019-04-10T16:00:45.802Z,12.97
2019-04-10T16:03:15.366Z,12.00
2019-04-10T16:05:44.085Z,13.10
2019-04-10T16:08:14.215Z,12.97
2019-04-10T16:10:46.217Z,12.63
2019-04-10T16:13:28.276Z,14.00
2019-04-10T16:15:58.896Z,13.25
2019-04-10T16:18:30.491Z,13.30
2019-04-10T16:20:59.982Z,13.37
2019-04-10T16:23:35.663Z,12.37
2019-04-10T16:26:04.929Z,12.50
2019-04-10T16:28:33.599Z,12.93
2019-04-10T16:31:03.302Z,11.97
2019-04-10T16:33:31.840Z,11.13
2019-04-10T16:36:00.939Z,11.53
2019-04-10T16:38:30.982Z,12.33
2019-04-10T16:41:00.453Z,12.57
2019-04-10T16:43:29.093Z,12.33
2019-04-10T16:45:57.542Z,12.97
2019-04-10T16:48:26.393Z,12.50
2019-04-10T16:50:56.072Z,12.07
2019-04-10T16:53:25.750Z,11.60
2019-04-10T16:55:54.331Z,11.73
2019-04-10T16:58:23.451Z,12.33
2019-04-10T17:00:51.997Z,11.97
2019-04-10T17:03:20.418Z,12.27
2019-04-10T17:05:50.000Z,11.63
2019-04-10T17:08:19.613Z,11.67
2019-04-10T17:10:48.376Z,11.70
2019-04-10T17:13:16.796Z,12.30
2019-04-10T17:15:45.452Z,11.83
2019-04-10T17:18:14.854Z,11.10
2019-04-10T17:20:44.578Z,9.97
2019-04-10T17:23:13.141Z,11.00
2019-04-10T17:25:42.441Z,10.87
2019-04-10T17:28:12.192Z,10.33
2019-04-10T17:30:42.174Z,10.37
2019-04-10T17:33:11.103Z,10.03
2019-04-10T17:35:40.021Z,10.13
2019-04-10T17:38:10.053Z,10.47
2019-04-10T17:40:47.767Z,10.03
2019-04-10T17:43:08.770Z,10.27
2019-04-10T17:45:38.419Z,10.40
2019-04-10T17:48:07.265Z,10.13
2019-04-10T17:50:35.769Z,9.27
2019-04-10T17:53:05.117Z,9.33
2019-04-10T17:55:34.272Z,9.43
2019-04-10T17:58:03.294Z,11.67
2019-04-10T18:00:33.463Z,9.73
2019-04-10T18:03:01.869Z,10.07
2019-04-10T18:05:30.910Z,10.43
2019-04-10T18:07:59.418Z,10.03
2019-04-10T18:10:41.118Z,9.53
2019-04-10T18:12:58.923Z,9.97
2019-04-10T18:15:28.261Z,9.43
2019-04-10T18:17:57.653Z,10.13
2019-04-10T18:20:26.502Z,9.83
2019-04-10T18:22:55.342Z,9.73
2019-04-10T18:25:24.009Z,8.80
2019-04-10T18:27:52.492Z,10.53
2019-04-10T18:30:21.805Z,9.40
2019-04-10T18:32:50.208Z,10.43
2019-04-10T18:35:18.652Z,9.80
2019-04-10T18:37:48.139Z,9.50
2019-04-10T18:40:17.339Z,10.90
2019-04-10T18:42:45.737Z,10.50
2019-04-10T18:45:14.361Z,10.63
2019-04-10T18:47:44.022Z,10.23
2019-04-10T18:50:12.566Z,10.23
2019-04-10T18:52:41.070Z,9.10
2019-04-10T18:55:09.546Z,9.77
2019-04-10T18:57:38.878Z,9.60
2019-04-10T19:00:19.618Z,9.03
2019-04-10T19:02:49.670Z,9.63
2019-04-10T19:05:19.713Z,9.87
2019-04-10T19:07:48.263Z,9.27
2019-04-10T19:10:17.796Z,10.10
2019-04-10T19:12:46.529Z,9.53
2019-04-10T19:15:14.995Z,9.00
2019-04-10T19:17:43.535Z,8.73
2019-04-10T19:20:13.427Z,8.23
2019-04-10T19:22:42.464Z,8.83
2019-04-10T19:25:11.212Z,8.60
2019-04-10T19:27:40.242Z,8.30
2019-04-10T19:30:19.910Z,8.47
2019-04-10T19:32:48.398Z,9.03
2019-04-10T19:35:16.992Z,7.83
2019-04-10T19:37:45.830Z,8.33
2019-04-10T19:40:15.717Z,8.60
2019-04-10T19:42:44.454Z,8.90
2019-04-10T19:45:13.206Z,8.43
2019-04-10T19:47:42.266Z,8.87
2019-04-10T19:50:11.120Z,8.13
2019-04-10T19:52:40.336Z,8.03
2019-04-10T19:55:09.303Z,8.20
2019-04-10T19:57:37.810Z,9.17
2019-04-10T20:00:10.602Z,9.07
2019-04-10T20:02:40.160Z,8.80
2019-04-10T20:05:09.530Z,8.83
2019-04-10T20:07:38.122Z,9.17
2019-04-10T20:10:06.961Z,8.47
2019-04-10T20:12:35.365Z,8.00
2019-04-10T20:15:06.439Z,8.20
2019-04-10T20:17:35.758Z,8.47
2019-04-10T20:20:06.855Z,8.47
2019-04-10T20:22:35.393Z,8.60
2019-04-10T20:25:03.940Z,8.03
2019-04-10T20:27:32.373Z,8.00
2019-04-10T20:30:01.608Z,8.10
2019-04-10T20:32:30.263Z,8.40
2019-04-10T20:34:59.995Z,7.53
2019-04-10T20:37:29.112Z,8.07
2019-04-10T20:39:58.057Z,8.03
2019-04-10T20:42:28.350Z,7.37
2019-04-10T20:44:57.026Z,7.97
2019-04-10T20:47:27.093Z,8.53
2019-04-10T20:49:56.611Z,9.40
2019-04-10T20:52:26.309Z,10.37
2019-04-10T20:54:55.299Z,9.37
2019-04-10T20:57:24.023Z,8.93
2019-04-10T20:59:53.246Z,9.40
2019-04-10T21:02:22.334Z,9.53
2019-04-10T21:04:56.566Z,8.47
2019-04-10T21:07:21.412Z,9.03
2019-04-10T21:09:50.280Z,9.13
2019-04-10T21:12:21.052Z,9.63
2019-04-10T21:14:49.166Z,9.07
2019-04-10T21:17:18.034Z,9.03
2019-04-10T21:19:46.430Z,9.00
2019-04-10T21:22:15.796Z,7.90
2019-04-10T21:24:45.473Z,8.10
2019-04-10T21:27:13.986Z,7.73
2019-04-10T21:29:44.243Z,8.50
2019-04-10T21:32:17.422Z,8.83
2019-04-10T21:34:47.400Z,7.63
2019-04-10T21:37:15.892Z,7.50
2019-04-10T21:39:45.580Z,7.83
2019-04-10T21:42:21.001Z,8.73
2019-04-10T21:44:44.948Z,8.20
2019-04-10T21:47:13.509Z,8.17
2019-04-10T21:49:42.118Z,8.00
2019-04-10T21:52:10.602Z,8.20
2019-04-10T21:54:48.793Z,9.50
2019-04-10T21:57:09.700Z,8.57
2019-04-10T21:59:38.942Z,8.50
2019-04-10T22:02:07.856Z,9.13
2019-04-10T22:04:36.446Z,8.10
2019-04-10T22:07:23.719Z,8.17
2019-04-10T22:09:54.975Z,8.23
2019-04-10T22:12:31.056Z,8.27
2019-04-10T22:14:55.992Z,8.60
2019-04-10T22:17:24.784Z,8.90
2019-04-10T22:19:53.286Z,8.57
2019-04-10T22:22:22.493Z,8.63
2019-04-10T22:24:51.079Z,9.00
2019-04-10T22:27:19.494Z,8.37
2019-04-10T22:29:47.919Z,10.00
2019-04-10T22:32:16.489Z,9.50
2019-04-10T22:34:44.965Z,8.33
2019-04-10T22:37:16.289Z,8.03
2019-04-10T22:39:43.744Z,9.27
2019-04-10T22:42:12.945Z,8.27
2019-04-10T22:44:45.213Z,9.53
2019-04-10T22:47:11.601Z,8.47
2019-04-10T22:49:40.077Z,9.27
2019-04-10T22:52:08.860Z,9.00
2019-04-10T22:54:37.455Z,8.43
2019-04-10T22:57:06.904Z,9.43
2019-04-10T22:59:35.433Z,9.33
2019-04-10T23:02:10.524Z,8.37
2019-04-10T23:04:34.928Z,9.00
2019-04-10T23:07:03.957Z,9.50
2019-04-10T23:09:32.659Z,9.03
2019-04-10T23:12:02.244Z,9.33
2019-04-10T23:14:31.146Z,8.97
2019-04-10T23:17:00.182Z,8.80
2019-04-10T23:19:28.658Z,9.60
2019-04-10T23:21:57.066Z,9.43
2019-04-10T23:24:25.532Z,8.73
2019-04-10T23:26:54.045Z,9.20
2019-04-10T23:29:22.503Z,9.00
2019-04-10T23:31:51.821Z,8.67
2019-04-10T23:34:20.908Z,7.97
2019-04-10T23:36:50.656Z,8.30
2019-04-10T23:39:19.780Z,7.93
2019-04-10T23:41:50.891Z,8.60
2019-04-10T23:44:18.585Z,8.27
2019-04-10T23:46:47.443Z,8.90
2019-04-10T23:49:17.351Z,8.40
2019-04-10T23:51:45.876Z,7.00
2019-04-10T23:54:15.215Z,7.90
2019-04-10T23:56:45.071Z,9.90
2019-04-10T23:59:14.855Z,9.03
